createdAt,value
2019-05-11T00:01:02.126Z,13.40
2019-05-11T00:03:30.083Z,13.40
2019-05-11T00:05:57.778Z,13.40
2019-05-11T00:08:25.629Z,13.30
2019-05-11T00:10:53.323Z,13.40
2019-05-11T00:13:21.181Z,13.40
2019-05-11T00:15:48.780Z,13.30
2019-05-11T00:18:16.532Z,13.20
2019-05-11T00:20:44.309Z,13.10
2019-05-11T00:23:11.991Z,13.10
2019-05-11T00:25:39.779Z,13.00
2019-05-11T00:28:08.393Z,13.00
2019-05-11T00:30:36.227Z,12.90
2019-05-11T00:33:03.917Z,12.90
2019-05-11T00:35:31.814Z,13.00
2019-05-11T00:37:59.535Z,13.10
2019-05-11T00:40:27.378Z,13.20
2019-05-11T00:42:55.073Z,13.20
2019-05-11T00:45:22.825Z,13.20
2019-05-11T00:47:50.718Z,13.10
2019-05-11T00:50:18.706Z,13.20
2019-05-11T00:52:46.406Z,13.20
2019-05-11T00:55:14.138Z,13.20
2019-05-11T00:57:41.834Z,13.20
2019-05-11T01:00:09.619Z,13.10
2019-05-11T01:02:37.989Z,13.10
2019-05-11T01:05:05.935Z,13.20
2019-05-11T01:07:34.103Z,13.20
2019-05-11T01:10:02.041Z,13.20
2019-05-11T01:12:31.470Z,13.10
2019-05-11T01:14:59.185Z,13.10
2019-05-11T01:17:26.810Z,13.00
2019-05-11T01:19:54.491Z,13.00
2019-05-11T01:22:22.249Z,12.90
2019-05-11T01:24:49.922Z,12.80
2019-05-11T01:27:17.705Z,12.90
2019-05-11T01:29:45.469Z,12.80
2019-05-11T01:32:13.221Z,12.90
2019-05-11T01:34:41.002Z,12.90
2019-05-11T01:37:08.753Z,13.00
2019-05-11T01:39:36.446Z,12.90
2019-05-11T01:42:04.226Z,12.90
2019-05-11T01:44:31.924Z,12.90
2019-05-11T01:46:59.734Z,12.90
2019-05-11T01:49:27.390Z,12.90
2019-05-11T01:51:55.253Z,12.90
2019-05-11T01:54:22.929Z,13.00
2019-05-11T01:56:50.612Z,13.10
2019-05-11T01:59:18.280Z,13.10
2019-05-11T02:01:45.922Z,13.10
2019-05-11T02:04:13.604Z,13.20
2019-05-11T02:06:41.313Z,13.10
2019-05-11T02:09:09.161Z,13.10
2019-05-11T02:11:37.016Z,13.10
2019-05-11T02:14:04.589Z,13.10
2019-05-11T02:16:32.274Z,13.00
2019-05-11T02:19:00.230Z,13.00
2019-05-11T02:21:28.005Z,12.80
2019-05-11T02:23:55.875Z,12.80
2019-05-11T02:26:23.638Z,12.70
2019-05-11T02:28:51.478Z,12.60
2019-05-11T02:31:19.139Z,12.60
2019-05-11T02:33:46.894Z,12.70
2019-05-11T02:36:14.560Z,12.70
2019-05-11T02:38:42.309Z,12.70
2019-05-11T02:41:10.003Z,12.60
2019-05-11T02:43:37.766Z,12.70
2019-05-11T02:46:05.470Z,12.70
2019-05-11T02:48:33.816Z,12.70
2019-05-11T02:51:02.279Z,12.80
2019-05-11T02:56:00.637Z,13.00
2019-05-11T02:58:28.908Z,13.00
2019-05-11T03:00:56.684Z,13.10
2019-05-11T03:03:24.367Z,13.10
2019-05-11T03:05:52.120Z,13.20
2019-05-11T03:08:19.923Z,13.20
2019-05-11T03:10:47.649Z,13.20
2019-05-11T03:13:15.460Z,13.10
2019-05-11T03:15:43.324Z,13.10
2019-05-11T03:18:11.084Z,13.20
2019-05-11T03:20:38.947Z,13.10
2019-05-11T03:23:06.532Z,13.20
2019-05-11T03:25:34.461Z,13.10
2019-05-11T03:28:02.199Z,13.10
2019-05-11T03:30:30.033Z,13.20
2019-05-11T03:32:57.605Z,13.20
2019-05-11T03:35:25.384Z,13.30
2019-05-11T03:37:53.174Z,13.30
2019-05-11T03:40:20.951Z,13.30
2019-05-11T03:42:48.639Z,13.20
2019-05-11T03:45:16.435Z,13.20
2019-05-11T03:47:44.226Z,13.30
2019-05-11T03:50:12.575Z,13.30
2019-05-11T03:52:40.770Z,13.30
2019-05-11T03:55:08.758Z,13.30
2019-05-11T03:57:36.917Z,13.30
2019-05-11T04:00:04.976Z,13.20
2019-05-11T04:02:33.592Z,13.30
2019-05-11T04:05:01.307Z,13.40
2019-05-11T04:07:30.674Z,13.30
2019-05-11T04:09:58.344Z,13.30
2019-05-11T04:12:35.004Z,13.30
2019-05-11T04:14:55.658Z,13.30
2019-05-11T04:17:23.514Z,13.30
2019-05-11T04:19:51.190Z,13.30
2019-05-11T04:22:19.035Z,13.30
2019-05-11T04:24:46.719Z,13.40
2019-05-11T04:27:19.192Z,13.40
2019-05-11T04:29:44.456Z,13.50
2019-05-11T04:32:12.218Z,13.50
2019-05-11T04:34:39.904Z,13.60
2019-05-11T04:37:07.552Z,13.60
2019-05-11T04:39:35.200Z,13.60
2019-05-11T04:42:03.130Z,13.70
2019-05-11T04:44:30.794Z,13.70
2019-05-11T04:46:58.523Z,13.70
2019-05-11T04:49:26.287Z,13.70
2019-05-11T04:51:54.099Z,13.70
2019-05-11T04:54:21.787Z,13.70
2019-05-11T04:56:49.570Z,13.60
2019-05-11T04:59:17.229Z,13.70
2019-05-11T05:01:44.993Z,13.70
2019-05-11T05:04:14.350Z,13.80
2019-05-11T05:06:42.170Z,13.80
2019-05-11T05:09:10.062Z,13.80
2019-05-11T05:11:38.496Z,13.80
2019-05-11T05:14:08.119Z,13.80
2019-05-11T05:16:36.057Z,13.90
2019-05-11T05:19:03.811Z,13.90
2019-05-11T05:21:31.658Z,14.00
2019-05-11T05:23:59.406Z,14.00
2019-05-11T05:26:27.093Z,14.10
2019-05-11T05:28:54.908Z,14.10
2019-05-11T05:31:22.475Z,14.20
2019-05-11T05:33:50.250Z,14.30
2019-05-11T05:36:17.947Z,14.40
2019-05-11T05:38:45.719Z,14.40
2019-05-11T05:41:13.445Z,14.50
2019-05-11T05:43:41.384Z,14.50
2019-05-11T05:46:09.071Z,14.50
2019-05-11T05:48:36.651Z,14.60
2019-05-11T05:51:04.403Z,14.60
2019-05-11T05:53:32.154Z,14.60
2019-05-11T05:55:59.855Z,14.60
2019-05-11T05:58:27.570Z,14.70
2019-05-11T06:00:55.462Z,14.70
2019-05-11T06:03:23.153Z,14.70
2019-05-11T06:05:50.890Z,14.70
2019-05-11T06:08:18.655Z,14.80
2019-05-11T06:10:46.592Z,14.80
2019-05-11T06:13:14.368Z,14.80
2019-05-11T06:15:42.311Z,14.80
2019-05-11T06:18:10.369Z,14.80
2019-05-11T06:20:38.198Z,14.80
2019-05-11T06:23:05.893Z,14.70
2019-05-11T06:25:33.842Z,14.80
2019-05-11T06:28:01.553Z,14.70
2019-05-11T06:30:29.539Z,14.80
2019-05-11T06:32:57.221Z,14.80
2019-05-11T06:35:25.021Z,14.90
2019-05-11T06:37:52.911Z,14.90
2019-05-11T06:40:20.622Z,15.00
2019-05-11T06:42:48.385Z,15.00
2019-05-11T06:45:16.480Z,15.10
2019-05-11T06:47:44.337Z,15.10
2019-05-11T06:50:12.260Z,15.10
2019-05-11T06:52:40.349Z,15.10
2019-05-11T06:55:08.047Z,15.20
2019-05-11T06:57:36.234Z,15.10
2019-05-11T07:00:04.511Z,15.10
2019-05-11T07:02:32.975Z,15.00
2019-05-11T07:05:00.689Z,15.10
2019-05-11T07:07:28.493Z,15.20
2019-05-11T07:09:56.242Z,15.20
2019-05-11T07:12:27.175Z,15.30
2019-05-11T07:14:53.495Z,15.40
2019-05-11T07:17:21.242Z,15.50
2019-05-11T07:19:49.045Z,15.50
2019-05-11T07:22:16.837Z,15.60
2019-05-11T07:24:44.674Z,15.60
2019-05-11T07:27:12.283Z,15.50
2019-05-11T07:29:40.037Z,15.40
2019-05-11T07:32:19.634Z,15.20
2019-05-11T07:34:38.340Z,15.20
2019-05-11T07:37:08.261Z,15.20
2019-05-11T07:39:38.180Z,15.20
2019-05-11T07:42:07.641Z,15.10
2019-05-11T07:44:38.808Z,15.10
2019-05-11T07:47:05.077Z,15.20
2019-05-11T07:49:32.861Z,15.20
2019-05-11T07:52:00.568Z,15.40
2019-05-11T07:54:28.321Z,15.40
2019-05-11T07:56:58.331Z,15.50
2019-05-11T07:59:28.734Z,15.50
2019-05-11T08:01:58.158Z,15.60
2019-05-11T08:04:25.596Z,15.60
2019-05-11T08:06:53.287Z,15.70
2019-05-11T08:09:21.139Z,15.70
2019-05-11T08:11:48.922Z,15.80
2019-05-11T08:14:18.285Z,15.70
2019-05-11T08:16:48.024Z,15.70
2019-05-11T08:19:18.215Z,15.60
2019-05-11T08:21:45.465Z,15.50
2019-05-11T08:24:13.265Z,15.50
2019-05-11T08:26:40.968Z,15.40
2019-05-11T08:29:08.844Z,15.40
2019-05-11T08:31:38.554Z,15.50
2019-05-11T08:34:08.667Z,15.60
2019-05-11T08:36:37.846Z,15.50
2019-05-11T08:39:07.754Z,15.60
2019-05-11T08:41:38.226Z,15.60
2019-05-11T08:44:05.846Z,15.50
2019-05-11T08:46:33.666Z,15.60
2019-05-11T08:49:01.466Z,15.60
2019-05-11T08:51:29.349Z,15.70
2019-05-11T08:53:58.376Z,15.80
2019-05-11T08:56:28.738Z,15.70
2019-05-11T08:58:58.585Z,15.50
2019-05-11T09:01:25.825Z,15.40
2019-05-11T09:03:53.684Z,15.30
2019-05-11T09:06:21.432Z,15.20
2019-05-11T09:08:49.487Z,15.20
2019-05-11T09:11:19.043Z,15.00
2019-05-11T09:13:48.886Z,15.00
2019-05-11T09:16:19.109Z,14.80
2019-05-11T09:18:47.948Z,14.70
2019-05-11T09:21:16.033Z,14.50
2019-05-11T09:23:43.726Z,14.50
2019-05-11T09:26:11.599Z,14.70
2019-05-11T09:28:39.292Z,14.80
2019-05-11T09:31:08.570Z,15.00
2019-05-11T09:33:38.417Z,15.30
2019-05-11T09:36:08.344Z,15.50
2019-05-11T09:38:38.181Z,15.70
2019-05-11T09:41:08.085Z,16.00
2019-05-11T09:43:37.545Z,16.20
2019-05-11T09:46:04.968Z,16.40
2019-05-11T09:48:32.884Z,16.50
2019-05-11T09:51:00.579Z,16.70
2019-05-11T09:53:28.523Z,16.60
2019-05-11T09:55:58.507Z,16.70
2019-05-11T09:58:27.932Z,16.80
2019-05-11T10:00:55.458Z,16.90
2019-05-11T10:03:23.150Z,17.00
2019-05-11T10:05:50.854Z,17.20
2019-05-11T10:08:18.675Z,17.30
2019-05-11T10:10:48.644Z,17.50
2019-05-11T10:13:18.416Z,17.70
2019-05-11T10:16:00.040Z,17.80
2019-05-11T10:18:15.281Z,17.90
2019-05-11T10:20:43.019Z,18.00
2019-05-11T10:23:10.899Z,18.00
2019-05-11T10:25:39.199Z,18.00
2019-05-11T10:28:08.656Z,17.90
2019-05-11T10:30:38.597Z,17.70
2019-05-11T10:33:08.297Z,17.60
2019-05-11T10:35:37.818Z,17.60
2019-05-11T10:38:05.758Z,17.50
2019-05-11T10:40:33.558Z,17.50
2019-05-11T10:43:01.298Z,17.50
2019-05-11T11:40:31.531Z,17.40
2019-05-11T11:42:58.700Z,17.50
2019-05-11T11:45:31.069Z,17.70
2019-05-11T11:48:08.470Z,17.90
2019-05-11T11:51:00.886Z,18.00
2019-05-11T11:53:33.486Z,18.00
2019-05-11T11:56:19.075Z,17.90
2019-05-11T11:58:51.958Z,17.80
2019-05-11T12:01:24.716Z,17.80
2019-05-11T12:03:58.107Z,17.70
2019-05-11T12:06:28.213Z,17.70
2019-05-11T12:09:03.368Z,17.70
2019-05-11T12:11:38.989Z,17.80
2019-05-11T12:14:30.265Z,17.80
2019-05-11T12:17:08.691Z,17.80
2019-05-11T12:19:58.554Z,17.80
2019-05-11T12:22:38.520Z,17.90
2019-05-11T12:25:13.131Z,18.10
2019-05-11T12:27:43.878Z,18.20
2019-05-11T12:30:22.692Z,18.30
2019-05-11T12:33:14.756Z,18.50
2019-05-11T12:35:47.995Z,18.70
2019-05-11T12:38:19.650Z,18.80
2019-05-11T12:40:57.746Z,18.80
2019-05-11T12:43:35.641Z,18.90
2019-05-11T12:46:11.312Z,19.00
2019-05-11T12:48:59.210Z,19.20
2019-05-11T12:51:53.498Z,19.50
2019-05-11T12:54:13.094Z,19.80
2019-05-11T12:56:51.532Z,19.90
2019-05-11T12:59:27.721Z,19.80
2019-05-11T13:01:59.286Z,20.00
2019-05-11T13:04:38.443Z,20.30
2019-05-11T13:07:08.665Z,20.50
2019-05-11T13:09:48.275Z,20.40
2019-05-11T13:12:19.026Z,20.20
2019-05-11T13:14:58.009Z,19.90
2019-05-11T13:17:38.411Z,19.80
2019-05-11T13:20:14.565Z,19.50
2019-05-11T13:22:48.680Z,19.00
2019-05-11T13:28:51.421Z,18.10
2019-05-11T13:31:21.431Z,17.60
2019-05-11T13:33:52.678Z,17.30
2019-05-11T13:36:20.490Z,17.00
2019-05-11T13:38:48.596Z,16.60
2019-05-11T13:41:18.736Z,16.40
2019-05-11T13:43:48.345Z,16.30
2019-05-11T13:46:18.040Z,16.20
2019-05-11T14:07:13.704Z,16.70
2019-05-11T14:09:49.383Z,17.40
2019-05-11T14:12:22.102Z,17.70
2019-05-11T14:14:53.395Z,18.00
2019-05-11T14:17:31.971Z,18.10
2019-05-11T14:20:01.323Z,18.20
2019-05-11T14:22:33.983Z,18.00
2019-05-11T14:25:32.631Z,17.80
2019-05-11T14:31:41.825Z,15.70
2019-05-11T14:34:09.722Z,15.00
2019-05-11T14:36:38.777Z,14.60
2019-05-11T14:39:08.456Z,14.40
2019-05-11T14:41:38.000Z,14.30
2019-05-11T14:44:08.574Z,14.30
2019-05-11T14:46:38.214Z,14.30
2019-05-11T14:49:07.725Z,14.30
2019-05-11T14:51:35.251Z,14.10
2019-05-11T14:54:03.074Z,14.00
2019-05-11T14:56:33.978Z,14.00
2019-05-11T14:59:01.782Z,14.10
2019-05-11T15:01:29.515Z,14.20
2019-05-11T15:03:58.877Z,14.20
2019-05-11T15:06:27.911Z,14.30
2019-05-11T15:08:58.089Z,14.30
2019-05-11T15:11:25.556Z,14.30
2019-05-11T15:13:53.359Z,14.40
2019-05-11T15:16:21.167Z,14.40
2019-05-11T15:18:48.983Z,14.40
2019-05-11T15:21:18.659Z,14.50
2019-05-11T15:23:47.734Z,14.50
2019-05-11T15:26:15.714Z,14.50
2019-05-11T15:28:43.456Z,14.50
2019-05-11T15:31:11.248Z,14.50
2019-05-11T15:33:38.992Z,14.50
2019-05-11T15:36:07.622Z,14.60
2019-05-11T15:38:37.678Z,14.50
2019-05-11T15:41:05.165Z,14.60
2019-05-11T15:43:32.850Z,14.70
2019-05-11T15:46:00.694Z,14.80
2019-05-11T15:48:28.412Z,14.90
2019-05-11T15:50:57.780Z,15.00
2019-05-11T15:53:25.634Z,15.10
2019-05-11T15:55:53.418Z,15.20
2019-05-11T15:58:21.810Z,15.30
2019-05-11T16:00:49.624Z,15.40
2019-05-11T16:03:18.624Z,15.40
2019-05-11T16:05:47.921Z,15.30
2019-05-11T16:08:18.618Z,15.30
2019-05-11T16:10:45.583Z,15.20
2019-05-11T16:13:13.361Z,15.00
2019-05-11T16:15:41.090Z,14.90
2019-05-11T16:18:09.389Z,14.70
2019-05-11T16:20:37.094Z,14.70
2019-05-11T16:23:04.923Z,14.60
2019-05-11T16:25:32.643Z,14.00
2019-05-11T16:28:00.516Z,13.30
2019-05-11T16:30:28.780Z,12.90
2019-05-11T16:32:58.069Z,12.60
2019-05-11T16:35:27.968Z,12.40
2019-05-11T16:37:55.592Z,12.20
2019-05-11T16:40:23.307Z,12.20
2019-05-11T16:42:51.194Z,12.20
2019-05-11T16:45:19.462Z,12.20
2019-05-11T16:47:48.265Z,12.20
2019-05-11T16:50:18.026Z,12.30
2019-05-11T16:52:48.137Z,12.40
2019-05-11T16:55:18.191Z,12.30
2019-05-11T16:57:48.013Z,12.20
2019-05-11T17:00:15.410Z,12.10
2019-05-11T17:02:43.534Z,12.00
2019-05-11T17:05:25.344Z,11.90
2019-05-11T17:07:41.115Z,11.90
2019-05-11T17:10:09.617Z,11.80
2019-05-11T17:12:38.531Z,11.90
2019-05-11T17:15:08.851Z,12.00
2019-05-11T17:17:36.974Z,11.90
2019-05-11T17:20:05.195Z,11.80
2019-05-11T17:22:34.489Z,11.90
2019-05-11T17:25:02.461Z,11.80
2019-05-11T17:27:31.828Z,11.80
2019-05-11T17:29:59.696Z,11.80
2019-05-11T17:32:29.330Z,11.70
2019-05-11T17:34:58.138Z,11.50
2019-05-11T17:37:28.384Z,11.30
2019-05-11T17:39:55.735Z,11.30
2019-05-11T17:42:23.444Z,11.20
2019-05-11T17:44:51.259Z,11.30
2019-05-11T17:47:19.034Z,11.20
2019-05-11T17:49:59.117Z,11.20
2019-05-11T17:52:18.839Z,11.20
2019-05-11T17:54:47.752Z,11.10
2019-05-11T17:57:15.831Z,10.90
2019-05-11T17:59:43.741Z,10.90
2019-05-11T18:02:11.523Z,11.00
2019-05-11T18:04:39.804Z,10.80
2019-05-11T18:07:07.683Z,10.90
2019-05-11T18:09:35.508Z,10.90
2019-05-11T18:12:03.365Z,10.90
2019-05-11T18:14:31.222Z,10.80
2019-05-11T18:16:59.131Z,10.80
2019-05-11T18:19:27.646Z,10.70
2019-05-11T18:21:57.644Z,10.70
2019-05-11T18:24:25.258Z,10.60
2019-05-11T18:26:53.064Z,10.70
2019-05-11T18:29:20.821Z,10.70
2019-05-11T18:31:48.732Z,10.80
2019-05-11T18:34:17.846Z,10.70
2019-05-11T18:36:45.874Z,10.70
2019-05-11T18:39:13.622Z,10.60
2019-05-11T18:41:41.414Z,10.50
2019-05-11T18:44:09.202Z,10.40
2019-05-11T18:46:38.909Z,10.40
2019-05-11T18:49:06.797Z,10.40
2019-05-11T18:51:34.633Z,10.40
2019-05-11T18:54:02.394Z,10.30
2019-05-11T18:56:30.350Z,10.30
2019-05-11T18:58:58.410Z,10.40
2019-05-11T19:01:28.424Z,10.40
2019-05-11T19:03:56.011Z,10.20
2019-05-11T19:06:23.721Z,10.10
2019-05-11T19:08:51.549Z,10.20
2019-05-11T19:11:19.309Z,10.10
2019-05-11T19:13:47.807Z,10.00
2019-05-11T19:16:15.653Z,10.00
2019-05-11T19:18:43.502Z,10.00
2019-05-11T19:21:11.238Z,10.00
2019-05-11T19:23:39.054Z,9.90
2019-05-11T19:26:08.353Z,9.90
2019-05-11T19:28:38.442Z,9.90
2019-05-11T19:31:10.874Z,9.90
2019-05-11T19:33:38.122Z,9.80
2019-05-11T19:36:07.772Z,9.80
2019-05-11T19:38:35.602Z,9.80
2019-05-11T19:41:03.374Z,9.80
2019-05-11T19:43:31.300Z,9.80
2019-05-11T19:45:59.117Z,9.80
2019-05-11T19:48:27.998Z,9.80
2019-05-11T19:51:04.650Z,9.70
2019-05-11T19:53:28.098Z,9.70
2019-05-11T19:55:58.214Z,9.70
2019-05-11T19:58:26.011Z,9.60
2019-05-11T20:00:53.918Z,9.50
2019-05-11T20:03:21.666Z,9.50
2019-05-11T20:05:49.487Z,9.60
2019-05-11T20:08:18.463Z,9.50
2019-05-11T20:10:48.596Z,9.60
2019-05-11T20:13:17.953Z,9.50
2019-05-11T20:15:48.324Z,9.50
2019-05-11T20:21:15.549Z,9.40
2019-05-11T20:23:33.196Z,9.40
2019-05-11T20:26:01.043Z,9.40
2019-05-11T20:28:28.818Z,9.40
2019-05-11T20:30:58.698Z,9.30
2019-05-11T20:33:27.944Z,9.20
2019-05-11T20:35:57.943Z,9.20
2019-05-11T20:38:27.931Z,9.30
2019-05-11T20:40:57.762Z,9.30
2019-05-11T20:43:28.011Z,9.30
2019-05-11T20:45:56.350Z,9.30
2019-05-11T20:48:24.186Z,9.40
2019-05-11T20:50:52.045Z,9.30
2019-05-11T20:53:19.902Z,9.30
2019-05-11T20:55:48.049Z,9.30
2019-05-11T20:58:18.994Z,9.30
2019-05-11T21:00:45.864Z,9.20
2019-05-11T21:03:13.650Z,9.30
2019-05-11T21:05:41.384Z,9.30
2019-05-11T21:08:09.257Z,9.30
2019-05-11T21:10:38.573Z,9.20
2019-05-11T21:13:08.618Z,9.20
2019-05-11T21:15:38.323Z,9.20
2019-05-11T21:18:07.876Z,9.10
2019-05-11T21:20:37.952Z,9.10
2019-05-11T21:23:05.407Z,9.10
2019-05-11T21:25:33.149Z,9.10
2019-05-11T21:28:01.104Z,9.10
2019-05-11T21:30:28.893Z,9.10
2019-05-11T21:32:58.209Z,9.10
2019-05-11T21:35:28.105Z,9.10
2019-05-11T21:37:57.982Z,9.10
2019-05-11T21:40:25.962Z,8.90
2019-05-11T21:42:53.760Z,8.90
2019-05-11T21:45:21.662Z,8.90
2019-05-11T21:47:49.498Z,8.80
2019-05-11T21:50:19.033Z,8.80
2019-05-11T21:52:48.400Z,8.80
2019-05-11T21:55:16.399Z,8.80
2019-05-11T21:57:44.299Z,8.80
2019-05-11T22:00:12.461Z,8.70
2019-05-11T22:02:40.755Z,8.70
2019-05-11T22:05:09.002Z,8.70
2019-05-11T22:07:41.374Z,8.70
2019-05-11T22:10:08.885Z,8.70
2019-05-11T22:12:38.995Z,8.70
2019-05-11T22:15:09.301Z,8.70
2019-05-11T22:17:39.312Z,8.70
2019-05-11T22:20:07.732Z,8.70
2019-05-11T22:22:35.658Z,8.70
2019-05-11T22:25:03.610Z,8.70
2019-05-11T22:27:31.848Z,8.60
2019-05-11T22:29:59.670Z,8.60
2019-05-11T22:32:28.519Z,8.60
2019-05-11T22:34:58.241Z,8.50
2019-05-11T22:37:27.738Z,8.50
2019-05-11T22:39:57.751Z,8.50
2019-05-11T22:42:28.167Z,8.50
2019-05-11T22:44:56.111Z,8.50
2019-05-11T22:47:23.862Z,8.50
2019-05-11T22:49:54.373Z,8.50
2019-05-11T22:52:33.053Z,8.50
2019-05-11T22:54:51.798Z,8.50
2019-05-11T22:57:19.757Z,8.50
2019-05-11T22:59:47.608Z,8.50
2019-05-11T23:02:15.367Z,8.50
2019-05-11T23:04:43.411Z,8.50
2019-05-11T23:07:11.218Z,8.50
2019-05-11T23:09:39.094Z,8.50
2019-05-11T23:12:09.029Z,8.60
2019-05-11T23:14:37.688Z,8.60
2019-05-11T23:17:07.933Z,8.50
2019-05-11T23:19:35.278Z,8.50
2019-05-11T23:22:05.433Z,8.50
2019-05-11T23:24:32.954Z,8.60
2019-05-11T23:27:00.800Z,8.50
2019-05-11T23:29:28.522Z,8.50
2019-05-11T23:31:58.240Z,8.50
2019-05-11T23:34:28.100Z,8.50
2019-05-11T23:36:55.748Z,8.40
2019-05-11T23:39:23.595Z,8.40
2019-05-11T23:41:51.438Z,8.50
2019-05-11T23:44:19.216Z,8.50
2019-05-11T23:46:47.848Z,8.50
2019-05-11T23:49:17.764Z,8.40
2019-05-11T23:51:47.687Z,8.50
2019-05-11T23:54:15.031Z,8.50
2019-05-11T23:56:42.894Z,8.50
2019-05-11T23:59:10.611Z,8.50
